Airfield :
LOGIN :

Register | Disclaimer

   EN    FR    IT 

 










Legend :    VFR   Marginal VFR   IFR   Intensive IFR   Very Intensive IFR
Visi :
Ceiling :
>= 8 km
>= 3000ft
5 to 8 km
1000 to 3000 ft
1500m to 5 km
500 to 1000 ft
800 to 1500m
200 to 500 ft
< 800m
< 200 ft
Symbols :   Thunderstorms  Fog  Heavy snow  Heavy precipitations  Wind > 20 kt
SIGMETs :     Misc.  Thunderstorms  Icing  Turbulence  Mountain Waves  Volcanic Ashes







- Airport Elevation : 59 ft
- IATA code : TSF


LIPH - Treviso

CURRENT METAR :
  • 180720Z AUTO VRB02KT ///// R07/0350N VV002 12/12 Q1021

EXPIRED METARs :
  • 180650Z AUTO 05003KT 340V100 //// R07/0325N VV002 12/12 Q1020
  • 180620Z AUTO 11003KT 080V150 //// R07/0275N VV002 12/12 Q1020
  • 180550Z AUTO VRB02KT //// R07/0275N VV001 12/12 Q1020
  • 180520Z AUTO 05004KT //// R07/0350N VV001 12/12 Q1020
  • 180450Z AUTO VRB02KT ///// R07/0350N VV001 12/12 Q1020

Expired Forecast.
No reported NOTAMs for that airfield.



MET'MAP, your aeronautical weather chart ! - Copyright ORBIFLY December 2007 - Disclaimer

ORBIFLY MET'MAP TEAM :

Programming & Development : Alexandra Zaïnal
Concept & Development : Baudouin d'Aumeries
Co-Development & Prog : Marc-Olivier Méhu
Technical & hardware support : Manuel Goepfert

Contact : metmap@orbifly.com




SOURCES & CREDITS :

   NOAA